sensor_id;sensor_type;location;lat;lon;timestamp;temperature;humidity
12434;DHT22;6281;49.038;8.372;2022-12-10T00:01:04;3.10;99.90
12434;DHT22;6281;49.038;8.372;2022-12-10T00:03:31;2.60;99.90
12434;DHT22;6281;49.038;8.372;2022-12-10T00:06:00;2.70;99.90
12434;DHT22;6281;49.038;8.372;2022-12-10T00:08:28;2.90;99.90
12434;DHT22;6281;49.038;8.372;2022-12-10T00:10:56;3.00;99.90
12434;DHT22;6281;49.038;8.372;2022-12-10T00:13:23;3.00;99.90
12434;DHT22;6281;49.038;8.372;2022-12-10T00:15:50;2.70;99.90
12434;DHT22;6281;49.038;8.372;2022-12-10T00:18:17;2.80;99.90
12434;DHT22;6281;49.038;8.372;2022-12-10T00:20:53;2.70;99.90
12434;DHT22;6281;49.038;8.372;2022-12-10T00:23:20;2.80;99.90
12434;DHT22;6281;49.038;8.372;2022-12-10T00:25:49;2.80;99.90
12434;DHT22;6281;49.038;8.372;2022-12-10T00:28:16;2.80;99.90
12434;DHT22;6281;49.038;8.372;2022-12-10T00:30:43;2.90;99.90
12434;DHT22;6281;49.038;8.372;2022-12-10T00:33:10;3.00;99.90
12434;DHT22;6281;49.038;8.372;2022-12-10T00:35:38;2.80;99.90
12434;DHT22;6281;49.038;8.372;2022-12-10T00:38:04;3.10;99.90
12434;DHT22;6281;49.038;8.372;2022-12-10T00:40:32;3.00;99.90
12434;DHT22;6281;49.038;8.372;2022-12-10T00:43:01;2.90;99.90
12434;DHT22;6281;49.038;8.372;2022-12-10T00:45:28;3.00;99.90
12434;DHT22;6281;49.038;8.372;2022-12-10T00:47:55;2.80;99.90
12434;DHT22;6281;49.038;8.372;2022-12-10T00:50:22;3.10;99.90
12434;DHT22;6281;49.038;8.372;2022-12-10T00:52:49;3.10;99.90
12434;DHT22;6281;49.038;8.372;2022-12-10T00:55:15;3.30;99.90
12434;DHT22;6281;49.038;8.372;2022-12-10T00:57:42;3.40;99.90
12434;DHT22;6281;49.038;8.372;2022-12-10T01:00:12;3.10;99.90
12434;DHT22;6281;49.038;8.372;2022-12-10T01:02:39;3.00;99.90
12434;DHT22;6281;49.038;8.372;2022-12-10T01:05:07;2.80;99.90
12434;DHT22;6281;49.038;8.372;2022-12-10T01:07:34;3.00;99.90
12434;DHT22;6281;49.038;8.372;2022-12-10T01:10:01;3.10;99.90
12434;DHT22;6281;49.038;8.372;2022-12-10T01:12:28;3.20;99.90
12434;DHT22;6281;49.038;8.372;2022-12-10T01:14:54;3.00;99.90
12434;DHT22;6281;49.038;8.372;2022-12-10T01:17:23;3.20;99.90
12434;DHT22;6281;49.038;8.372;2022-12-10T01:19:50;2.90;99.90
12434;DHT22;6281;49.038;8.372;2022-12-10T01:22:17;2.90;99.90
12434;DHT22;6281;49.038;8.372;2022-12-10T01:24:44;3.20;99.90
12434;DHT22;6281;49.038;8.372;2022-12-10T01:27:10;3.20;99.90
12434;DHT22;6281;49.038;8.372;2022-12-10T01:29:37;3.10;99.90
12434;DHT22;6281;49.038;8.372;2022-12-10T01:32:04;2.60;99.90
12434;DHT22;6281;49.038;8.372;2022-12-10T01:34:33;3.20;99.90
12434;DHT22;6281;49.038;8.372;2022-12-10T01:36:59;3.20;99.90
12434;DHT22;6281;49.038;8.372;2022-12-10T01:39:26;3.40;99.90
12434;DHT22;6281;49.038;8.372;2022-12-10T01:41:55;3.30;99.90
12434;DHT22;6281;49.038;8.372;2022-12-10T01:44:58;3.10;99.90
12434;DHT22;6281;49.038;8.372;2022-12-10T01:47:25;3.10;99.90
12434;DHT22;6281;49.038;8.372;2022-12-10T01:49:54;3.00;99.90
12434;DHT22;6281;49.038;8.372;2022-12-10T01:52:21;3.20;99.90
12434;DHT22;6281;49.038;8.372;2022-12-10T01:54:48;3.10;99.90
12434;DHT22;6281;49.038;8.372;2022-12-10T01:57:17;3.00;99.90
12434;DHT22;6281;49.038;8.372;2022-12-10T01:59:47;3.00;99.90
12434;DHT22;6281;49.038;8.372;2022-12-10T02:02:20;3.00;99.90
12434;DHT22;6281;49.038;8.372;2022-12-10T02:04:58;3.20;99.90
12434;DHT22;6281;49.038;8.372;2022-12-10T02:07:33;3.20;99.90
12434;DHT22;6281;49.038;8.372;2022-12-10T02:10:08;3.30;99.90
12434;DHT22;6281;49.038;8.372;2022-12-10T02:12:46;3.20;99.90
12434;DHT22;6281;49.038;8.372;2022-12-10T02:15:16;3.40;99.90
12434;DHT22;6281;49.038;8.372;2022-12-10T02:17:45;3.40;99.90
12434;DHT22;6281;49.038;8.372;2022-12-10T02:20:17;3.00;99.90
12434;DHT22;6281;49.038;8.372;2022-12-10T02:22:49;3.10;99.90
12434;DHT22;6281;49.038;8.372;2022-12-10T02:25:20;3.40;99.90
12434;DHT22;6281;49.038;8.372;2022-12-10T02:27:52;3.30;99.90
12434;DHT22;6281;49.038;8.372;2022-12-10T02:30:21;3.30;99.90
12434;DHT22;6281;49.038;8.372;2022-12-10T02:32:50;3.30;99.90
12434;DHT22;6281;49.038;8.372;2022-12-10T02:35:21;3.20;99.90
12434;DHT22;6281;49.038;8.372;2022-12-10T02:37:59;3.00;99.90
12434;DHT22;6281;49.038;8.372;2022-12-10T02:40:31;2.90;99.90
12434;DHT22;6281;49.038;8.372;2022-12-10T02:42:59;2.80;99.90
12434;DHT22;6281;49.038;8.372;2022-12-10T02:45:30;2.20;99.90
12434;DHT22;6281;49.038;8.372;2022-12-10T02:48:00;2.80;99.90
12434;DHT22;6281;49.038;8.372;2022-12-10T02:50:28;2.80;99.90
12434;DHT22;6281;49.038;8.372;2022-12-10T02:52:55;3.10;99.90
12434;DHT22;6281;49.038;8.372;2022-12-10T02:55:22;3.00;99.90
12434;DHT22;6281;49.038;8.372;2022-12-10T02:58:02;2.70;99.90
12434;DHT22;6281;49.038;8.372;2022-12-10T03:00:38;2.40;99.90
12434;DHT22;6281;49.038;8.372;2022-12-10T03:03:25;2.50;99.90
12434;DHT22;6281;49.038;8.372;2022-12-10T03:05:59;2.80;99.90
12434;DHT22;6281;49.038;8.372;2022-12-10T03:08:33;2.70;99.90
12434;DHT22;6281;49.038;8.372;2022-12-10T03:11:07;2.30;99.90
12434;DHT22;6281;49.038;8.372;2022-12-10T03:13:38;2.30;99.90
12434;DHT22;6281;49.038;8.372;2022-12-10T03:16:09;2.20;99.90
12434;DHT22;6281;49.038;8.372;2022-12-10T03:18:37;2.50;99.90
12434;DHT22;6281;49.038;8.372;2022-12-10T03:21:06;2.50;99.90
12434;DHT22;6281;49.038;8.372;2022-12-10T03:23:36;2.50;99.90
12434;DHT22;6281;49.038;8.372;2022-12-10T03:26:04;2.80;99.90
12434;DHT22;6281;49.038;8.372;2022-12-10T03:28:35;2.90;99.90
12434;DHT22;6281;49.038;8.372;2022-12-10T03:31:04;2.80;99.90
12434;DHT22;6281;49.038;8.372;2022-12-10T03:33:34;2.80;99.90
12434;DHT22;6281;49.038;8.372;2022-12-10T03:36:01;2.50;99.90
12434;DHT22;6281;49.038;8.372;2022-12-10T03:38:28;2.90;99.90
12434;DHT22;6281;49.038;8.372;2022-12-10T03:40:56;2.50;99.90
12434;DHT22;6281;49.038;8.372;2022-12-10T03:43:22;2.60;99.90
12434;DHT22;6281;49.038;8.372;2022-12-10T03:45:49;2.40;99.90
12434;DHT22;6281;49.038;8.372;2022-12-10T03:48:16;2.20;99.90
12434;DHT22;6281;49.038;8.372;2022-12-10T03:50:45;2.80;99.90
12434;DHT22;6281;49.038;8.372;2022-12-10T03:53:12;3.00;99.90
12434;DHT22;6281;49.038;8.372;2022-12-10T03:55:40;3.20;99.90
12434;DHT22;6281;49.038;8.372;2022-12-10T03:58:07;3.10;99.90
12434;DHT22;6281;49.038;8.372;2022-12-10T04:00:37;3.00;99.90
12434;DHT22;6281;49.038;8.372;2022-12-10T04:03:11;3.00;99.90
12434;DHT22;6281;49.038;8.372;2022-12-10T04:05:38;2.90;99.90
12434;DHT22;6281;49.038;8.372;2022-12-10T04:08:06;3.00;99.90
12434;DHT22;6281;49.038;8.372;2022-12-10T04:10:35;3.00;99.90
12434;DHT22;6281;49.038;8.372;2022-12-10T04:13:02;3.10;99.90
12434;DHT22;6281;49.038;8.372;2022-12-10T04:15:46;3.10;99.90
12434;DHT22;6281;49.038;8.372;2022-12-10T04:18:39;3.10;99.90
12434;DHT22;6281;49.038;8.372;2022-12-10T04:21:05;3.20;99.90
12434;DHT22;6281;49.038;8.372;2022-12-10T04:23:51;2.80;99.90
12434;DHT22;6281;49.038;8.372;2022-12-10T04:26:32;2.90;99.90
12434;DHT22;6281;49.038;8.372;2022-12-10T04:29:16;3.00;99.90
12434;DHT22;6281;49.038;8.372;2022-12-10T04:31:43;3.10;99.90
12434;DHT22;6281;49.038;8.372;2022-12-10T04:34:10;3.00;99.90
12434;DHT22;6281;49.038;8.372;2022-12-10T04:36:37;3.00;99.90
12434;DHT22;6281;49.038;8.372;2022-12-10T04:39:05;2.80;99.90
12434;DHT22;6281;49.038;8.372;2022-12-10T04:41:32;2.90;99.90
12434;DHT22;6281;49.038;8.372;2022-12-10T04:43:59;2.50;99.90
12434;DHT22;6281;49.038;8.372;2022-12-10T04:46:27;2.30;99.90
12434;DHT22;6281;49.038;8.372;2022-12-10T04:48:55;2.40;99.90
12434;DHT22;6281;49.038;8.372;2022-12-10T04:51:22;2.60;99.90
12434;DHT22;6281;49.038;8.372;2022-12-10T04:53:49;2.40;99.90
12434;DHT22;6281;49.038;8.372;2022-12-10T04:56:19;2.50;99.90
12434;DHT22;6281;49.038;8.372;2022-12-10T04:58:46;2.40;99.90
12434;DHT22;6281;49.038;8.372;2022-12-10T05:01:13;2.30;99.90
12434;DHT22;6281;49.038;8.372;2022-12-10T05:03:40;2.30;99.90
12434;DHT22;6281;49.038;8.372;2022-12-10T05:06:09;2.10;99.90
12434;DHT22;6281;49.038;8.372;2022-12-10T05:08:39;2.30;99.90
12434;DHT22;6281;49.038;8.372;2022-12-10T05:11:09;2.10;99.90
12434;DHT22;6281;49.038;8.372;2022-12-10T05:13:38;2.40;99.90
12434;DHT22;6281;49.038;8.372;2022-12-10T05:16:10;2.10;99.90
12434;DHT22;6281;49.038;8.372;2022-12-10T05:18:38;2.00;99.90
12434;DHT22;6281;49.038;8.372;2022-12-10T05:21:07;2.20;99.90
12434;DHT22;6281;49.038;8.372;2022-12-10T05:23:36;2.30;99.90
12434;DHT22;6281;49.038;8.372;2022-12-10T05:26:04;2.10;99.90
12434;DHT22;6281;49.038;8.372;2022-12-10T05:28:34;2.00;99.90
12434;DHT22;6281;49.038;8.372;2022-12-10T05:31:02;2.20;99.90
12434;DHT22;6281;49.038;8.372;2022-12-10T05:33:30;2.30;99.90
12434;DHT22;6281;49.038;8.372;2022-12-10T05:35:59;1.90;99.90
12434;DHT22;6281;49.038;8.372;2022-12-10T05:38:28;2.10;99.90
12434;DHT22;6281;49.038;8.372;2022-12-10T05:40:55;2.30;99.90
12434;DHT22;6281;49.038;8.372;2022-12-10T05:43:27;2.20;99.90
12434;DHT22;6281;49.038;8.372;2022-12-10T05:45:58;2.00;99.90
12434;DHT22;6281;49.038;8.372;2022-12-10T05:48:26;2.20;99.90
12434;DHT22;6281;49.038;8.372;2022-12-10T05:50:53;2.10;99.90
12434;DHT22;6281;49.038;8.372;2022-12-10T05:53:20;2.00;99.90
12434;DHT22;6281;49.038;8.372;2022-12-10T05:55:47;2.30;99.90
12434;DHT22;6281;49.038;8.372;2022-12-10T05:58:14;2.00;99.90
12434;DHT22;6281;49.038;8.372;2022-12-10T06:00:41;1.90;99.90
12434;DHT22;6281;49.038;8.372;2022-12-10T06:03:09;2.40;99.90
12434;DHT22;6281;49.038;8.372;2022-12-10T06:05:38;2.30;99.90
12434;DHT22;6281;49.038;8.372;2022-12-10T06:08:05;2.60;99.90
12434;DHT22;6281;49.038;8.372;2022-12-10T06:10:34;2.70;99.90
12434;DHT22;6281;49.038;8.372;2022-12-10T06:13:01;2.00;99.90
12434;DHT22;6281;49.038;8.372;2022-12-10T06:15:28;2.40;99.90
12434;DHT22;6281;49.038;8.372;2022-12-10T06:17:55;2.30;99.90
12434;DHT22;6281;49.038;8.372;2022-12-10T06:20:30;2.40;99.90
12434;DHT22;6281;49.038;8.372;2022-12-10T06:23:26;2.30;99.90
12434;DHT22;6281;49.038;8.372;2022-12-10T06:27:38;2.60;99.90
12434;DHT22;6281;49.038;8.372;2022-12-10T06:29:01;2.70;99.90
12434;DHT22;6281;49.038;8.372;2022-12-10T06:31:30;2.30;99.90
12434;DHT22;6281;49.038;8.372;2022-12-10T06:33:57;2.50;99.90
12434;DHT22;6281;49.038;8.372;2022-12-10T06:36:24;2.40;99.90
12434;DHT22;6281;49.038;8.372;2022-12-10T06:38:52;2.30;99.90
12434;DHT22;6281;49.038;8.372;2022-12-10T06:41:19;2.50;99.90
12434;DHT22;6281;49.038;8.372;2022-12-10T06:43:47;2.40;99.90
12434;DHT22;6281;49.038;8.372;2022-12-10T06:46:16;2.60;99.90
12434;DHT22;6281;49.038;8.372;2022-12-10T06:48:43;2.00;99.90
12434;DHT22;6281;49.038;8.372;2022-12-10T06:51:11;2.10;99.90
12434;DHT22;6281;49.038;8.372;2022-12-10T06:53:39;2.50;99.90
12434;DHT22;6281;49.038;8.372;2022-12-10T06:56:11;2.50;99.90
12434;DHT22;6281;49.038;8.372;2022-12-10T06:58:39;2.50;99.90
12434;DHT22;6281;49.038;8.372;2022-12-10T07:01:09;2.50;99.90
12434;DHT22;6281;49.038;8.372;2022-12-10T07:03:37;2.30;99.90
12434;DHT22;6281;49.038;8.372;2022-12-10T07:06:05;2.50;99.90
12434;DHT22;6281;49.038;8.372;2022-12-10T07:08:33;2.50;99.90
12434;DHT22;6281;49.038;8.372;2022-12-10T07:11:03;2.30;99.90
12434;DHT22;6281;49.038;8.372;2022-12-10T07:13:32;2.30;99.90
12434;DHT22;6281;49.038;8.372;2022-12-10T07:15:59;2.50;99.90
12434;DHT22;6281;49.038;8.372;2022-12-10T07:18:26;2.70;99.90
12434;DHT22;6281;49.038;8.372;2022-12-10T07:20:53;2.10;99.90
12434;DHT22;6281;49.038;8.372;2022-12-10T07:23:20;2.20;99.90
12434;DHT22;6281;49.038;8.372;2022-12-10T07:25:47;2.10;99.90
12434;DHT22;6281;49.038;8.372;2022-12-10T07:28:15;2.30;99.90
12434;DHT22;6281;49.038;8.372;2022-12-10T07:30:43;2.10;99.90
12434;DHT22;6281;49.038;8.372;2022-12-10T07:33:11;2.40;99.90
12434;DHT22;6281;49.038;8.372;2022-12-10T07:35:38;2.70;99.90
12434;DHT22;6281;49.038;8.372;2022-12-10T07:38:06;2.30;99.90
12434;DHT22;6281;49.038;8.372;2022-12-10T07:40:33;2.50;99.90
12434;DHT22;6281;49.038;8.372;2022-12-10T07:43:00;2.30;99.90
12434;DHT22;6281;49.038;8.372;2022-12-10T07:45:27;1.90;99.90
12434;DHT22;6281;49.038;8.372;2022-12-10T07:47:55;2.30;99.90
12434;DHT22;6281;49.038;8.372;2022-12-10T07:50:22;2.10;99.90
12434;DHT22;6281;49.038;8.372;2022-12-10T07:52:49;2.30;99.90
12434;DHT22;6281;49.038;8.372;2022-12-10T07:55:16;2.10;99.90
12434;DHT22;6281;49.038;8.372;2022-12-10T07:57:43;2.40;99.90
12434;DHT22;6281;49.038;8.372;2022-12-10T08:00:11;2.20;99.90
12434;DHT22;6281;49.038;8.372;2022-12-10T08:02:39;2.30;99.90
12434;DHT22;6281;49.038;8.372;2022-12-10T08:05:08;2.40;99.90
12434;DHT22;6281;49.038;8.372;2022-12-10T08:07:36;2.20;99.90
12434;DHT22;6281;49.038;8.372;2022-12-10T08:10:03;2.00;99.90
12434;DHT22;6281;49.038;8.372;2022-12-10T08:12:30;2.00;99.90
12434;DHT22;6281;49.038;8.372;2022-12-10T08:14:57;2.30;99.90
12434;DHT22;6281;49.038;8.372;2022-12-10T08:17:24;2.50;99.90
12434;DHT22;6281;49.038;8.372;2022-12-10T08:19:51;2.60;99.90
12434;DHT22;6281;49.038;8.372;2022-12-10T08:22:21;2.70;99.90
12434;DHT22;6281;49.038;8.372;2022-12-10T08:24:48;2.30;99.90
12434;DHT22;6281;49.038;8.372;2022-12-10T08:27:15;2.30;99.90
12434;DHT22;6281;49.038;8.372;2022-12-10T08:29:42;2.30;99.90
12434;DHT22;6281;49.038;8.372;2022-12-10T08:32:09;2.20;99.90
12434;DHT22;6281;49.038;8.372;2022-12-10T08:34:36;2.20;99.90
12434;DHT22;6281;49.038;8.372;2022-12-10T08:37:03;2.00;99.90
12434;DHT22;6281;49.038;8.372;2022-12-10T08:39:31;2.20;99.90
12434;DHT22;6281;49.038;8.372;2022-12-10T08:42:01;2.20;99.90
12434;DHT22;6281;49.038;8.372;2022-12-10T08:44:28;1.80;99.90
12434;DHT22;6281;49.038;8.372;2022-12-10T08:46:54;2.00;99.90
12434;DHT22;6281;49.038;8.372;2022-12-10T08:49:21;2.00;99.90
12434;DHT22;6281;49.038;8.372;2022-12-10T08:51:48;1.80;99.90
12434;DHT22;6281;49.038;8.372;2022-12-10T08:54:15;2.10;99.90
12434;DHT22;6281;49.038;8.372;2022-12-10T08:56:43;2.40;99.90
12434;DHT22;6281;49.038;8.372;2022-12-10T08:59:10;2.40;99.90
12434;DHT22;6281;49.038;8.372;2022-12-10T09:01:37;2.10;99.90
12434;DHT22;6281;49.038;8.372;2022-12-10T09:04:05;1.90;99.90
12434;DHT22;6281;49.038;8.372;2022-12-10T09:06:31;2.20;99.90
12434;DHT22;6281;49.038;8.372;2022-12-10T09:08:59;2.20;99.90
12434;DHT22;6281;49.038;8.372;2022-12-10T09:11:28;2.30;99.90
12434;DHT22;6281;49.038;8.372;2022-12-10T09:13:58;2.00;99.90
12434;DHT22;6281;49.038;8.372;2022-12-10T09:16:29;1.90;99.90
12434;DHT22;6281;49.038;8.372;2022-12-10T09:18:56;2.10;99.90
12434;DHT22;6281;49.038;8.372;2022-12-10T09:21:23;2.10;99.90
12434;DHT22;6281;49.038;8.372;2022-12-10T09:23:51;2.30;99.90
12434;DHT22;6281;49.038;8.372;2022-12-10T09:26:19;2.30;99.90
12434;DHT22;6281;49.038;8.372;2022-12-10T09:28:46;2.40;99.90
12434;DHT22;6281;49.038;8.372;2022-12-10T09:31:16;2.30;99.90
12434;DHT22;6281;49.038;8.372;2022-12-10T09:33:44;2.10;99.90
12434;DHT22;6281;49.038;8.372;2022-12-10T09:36:12;2.50;99.90
12434;DHT22;6281;49.038;8.372;2022-12-10T09:38:41;2.20;99.90
12434;DHT22;6281;49.038;8.372;2022-12-10T09:41:24;2.20;99.90
12434;DHT22;6281;49.038;8.372;2022-12-10T09:43:58;2.70;99.90
12434;DHT22;6281;49.038;8.372;2022-12-10T09:46:40;3.00;99.90
12434;DHT22;6281;49.038;8.372;2022-12-10T09:49:13;2.70;99.90
12434;DHT22;6281;49.038;8.372;2022-12-10T09:51:47;2.60;99.90
12434;DHT22;6281;49.038;8.372;2022-12-10T09:54:19;2.20;99.90
12434;DHT22;6281;49.038;8.372;2022-12-10T09:56:48;2.40;99.90
12434;DHT22;6281;49.038;8.372;2022-12-10T09:59:20;2.30;99.90
12434;DHT22;6281;49.038;8.372;2022-12-10T10:01:56;2.30;99.90
12434;DHT22;6281;49.038;8.372;2022-12-10T10:04:24;2.60;99.90
12434;DHT22;6281;49.038;8.372;2022-12-10T10:06:52;2.50;99.90
12434;DHT22;6281;49.038;8.372;2022-12-10T10:09:19;2.50;99.90
12434;DHT22;6281;49.038;8.372;2022-12-10T10:11:47;2.40;99.90
12434;DHT22;6281;49.038;8.372;2022-12-10T10:14:20;3.10;99.90
12434;DHT22;6281;49.038;8.372;2022-12-10T10:16:53;3.00;99.90
12434;DHT22;6281;49.038;8.372;2022-12-10T10:19:25;3.10;99.90
12434;DHT22;6281;49.038;8.372;2022-12-10T10:21:53;3.00;99.90
12434;DHT22;6281;49.038;8.372;2022-12-10T10:24:22;2.70;99.90
12434;DHT22;6281;49.038;8.372;2022-12-10T10:26:51;3.10;99.90
12434;DHT22;6281;49.038;8.372;2022-12-10T10:29:20;3.40;99.90
12434;DHT22;6281;49.038;8.372;2022-12-10T10:32:12;3.00;99.90
12434;DHT22;6281;49.038;8.372;2022-12-10T10:34:40;2.90;99.90
12434;DHT22;6281;49.038;8.372;2022-12-10T10:37:11;3.00;99.90
12434;DHT22;6281;49.038;8.372;2022-12-10T10:39:46;2.50;99.90
12434;DHT22;6281;49.038;8.372;2022-12-10T10:42:26;2.50;99.90
12434;DHT22;6281;49.038;8.372;2022-12-10T10:44:54;2.60;99.90
12434;DHT22;6281;49.038;8.372;2022-12-10T10:47:27;2.30;99.90
12434;DHT22;6281;49.038;8.372;2022-12-10T10:49:57;2.30;99.90
12434;DHT22;6281;49.038;8.372;2022-12-10T10:52:28;2.20;99.90
12434;DHT22;6281;49.038;8.372;2022-12-10T10:54:55;2.40;99.90
12434;DHT22;6281;49.038;8.372;2022-12-10T10:57:26;2.80;99.90
12434;DHT22;6281;49.038;8.372;2022-12-10T10:59:56;2.70;99.90
12434;DHT22;6281;49.038;8.372;2022-12-10T11:02:30;3.00;99.90
12434;DHT22;6281;49.038;8.372;2022-12-10T11:05:05;2.80;99.90
12434;DHT22;6281;49.038;8.372;2022-12-10T11:07:35;2.50;99.90
12434;DHT22;6281;49.038;8.372;2022-12-10T11:10:03;2.50;99.90
12434;DHT22;6281;49.038;8.372;2022-12-10T11:12:41;2.80;99.90
12434;DHT22;6281;49.038;8.372;2022-12-10T11:15:30;2.90;99.90
12434;DHT22;6281;49.038;8.372;2022-12-10T11:17:59;2.80;99.90
12434;DHT22;6281;49.038;8.372;2022-12-10T11:20:29;2.80;99.90
12434;DHT22;6281;49.038;8.372;2022-12-10T11:22:57;2.80;99.90
12434;DHT22;6281;49.038;8.372;2022-12-10T11:25:36;2.60;99.90
12434;DHT22;6281;49.038;8.372;2022-12-10T11:28:16;2.60;99.90
12434;DHT22;6281;49.038;8.372;2022-12-10T11:30:55;3.10;99.90
12434;DHT22;6281;49.038;8.372;2022-12-10T11:33:31;3.10;99.90
12434;DHT22;6281;49.038;8.372;2022-12-10T11:36:10;2.90;99.90
12434;DHT22;6281;49.038;8.372;2022-12-10T11:38:47;2.80;99.90
12434;DHT22;6281;49.038;8.372;2022-12-10T11:41:26;2.70;99.90
12434;DHT22;6281;49.038;8.372;2022-12-10T11:44:13;2.90;99.90
12434;DHT22;6281;49.038;8.372;2022-12-10T11:47:13;3.20;99.90
12434;DHT22;6281;49.038;8.372;2022-12-10T11:49:52;3.00;99.90
12434;DHT22;6281;49.038;8.372;2022-12-10T11:52:44;3.00;99.90
12434;DHT22;6281;49.038;8.372;2022-12-10T11:55:24;3.20;99.90
12434;DHT22;6281;49.038;8.372;2022-12-10T11:58:03;2.70;99.90
12434;DHT22;6281;49.038;8.372;2022-12-10T12:00:39;3.00;99.90
12434;DHT22;6281;49.038;8.372;2022-12-10T12:03:18;3.20;99.90
12434;DHT22;6281;49.038;8.372;2022-12-10T12:06:15;3.10;99.90
12434;DHT22;6281;49.038;8.372;2022-12-10T12:08:51;3.20;99.90
12434;DHT22;6281;49.038;8.372;2022-12-10T12:11:29;3.30;99.90
12434;DHT22;6281;49.038;8.372;2022-12-10T12:14:01;3.20;99.90
12434;DHT22;6281;49.038;8.372;2022-12-10T12:16:35;3.20;99.90
12434;DHT22;6281;49.038;8.372;2022-12-10T12:19:11;3.40;99.90
12434;DHT22;6281;49.038;8.372;2022-12-10T12:21:51;3.50;99.90
12434;DHT22;6281;49.038;8.372;2022-12-10T12:24:34;3.80;99.90
12434;DHT22;6281;49.038;8.372;2022-12-10T12:27:07;4.70;99.90
12434;DHT22;6281;49.038;8.372;2022-12-10T12:29:43;4.30;99.90
12434;DHT22;6281;49.038;8.372;2022-12-10T12:32:15;5.20;99.90
12434;DHT22;6281;49.038;8.372;2022-12-10T12:34:46;4.80;99.90
12434;DHT22;6281;49.038;8.372;2022-12-10T12:37:21;3.90;99.90
12434;DHT22;6281;49.038;8.372;2022-12-10T12:39:55;3.90;99.90
12434;DHT22;6281;49.038;8.372;2022-12-10T12:42:28;4.00;99.90
12434;DHT22;6281;49.038;8.372;2022-12-10T12:45:01;4.10;99.90
12434;DHT22;6281;49.038;8.372;2022-12-10T12:47:34;4.00;99.90
12434;DHT22;6281;49.038;8.372;2022-12-10T12:50:15;4.10;99.90
12434;DHT22;6281;49.038;8.372;2022-12-10T12:52:51;3.80;99.90
12434;DHT22;6281;49.038;8.372;2022-12-10T12:55:21;3.40;99.90
12434;DHT22;6281;49.038;8.372;2022-12-10T12:57:53;3.20;99.90
12434;DHT22;6281;49.038;8.372;2022-12-10T13:00:22;3.50;99.90
12434;DHT22;6281;49.038;8.372;2022-12-10T13:02:58;3.40;99.90
12434;DHT22;6281;49.038;8.372;2022-12-10T13:05:29;3.20;99.90
12434;DHT22;6281;49.038;8.372;2022-12-10T13:08:31;3.00;99.90
12434;DHT22;6281;49.038;8.372;2022-12-10T13:11:14;3.20;99.90
12434;DHT22;6281;49.038;8.372;2022-12-10T13:14:04;3.50;99.90
12434;DHT22;6281;49.038;8.372;2022-12-10T13:16:48;3.60;99.90
12434;DHT22;6281;49.038;8.372;2022-12-10T13:19:22;3.50;99.90
12434;DHT22;6281;49.038;8.372;2022-12-10T13:21:58;3.30;99.90
12434;DHT22;6281;49.038;8.372;2022-12-10T13:24:45;3.40;99.90
12434;DHT22;6281;49.038;8.372;2022-12-10T13:27:17;3.00;99.90
12434;DHT22;6281;49.038;8.372;2022-12-10T13:29:56;3.30;99.90
12434;DHT22;6281;49.038;8.372;2022-12-10T13:32:41;3.30;99.90
12434;DHT22;6281;49.038;8.372;2022-12-10T13:35:29;2.90;99.90
12434;DHT22;6281;49.038;8.372;2022-12-10T13:38:04;3.30;99.90
12434;DHT22;6281;49.038;8.372;2022-12-10T13:40:40;3.40;99.90
12434;DHT22;6281;49.038;8.372;2022-12-10T13:43:28;3.60;99.90
12434;DHT22;6281;49.038;8.372;2022-12-10T13:46:31;3.00;99.90
12434;DHT22;6281;49.038;8.372;2022-12-10T13:49:00;2.90;99.90
12434;DHT22;6281;49.038;8.372;2022-12-10T13:51:44;3.10;99.90
12434;DHT22;6281;49.038;8.372;2022-12-10T13:54:34;3.20;99.90
12434;DHT22;6281;49.038;8.372;2022-12-10T13:57:15;2.60;99.90
12434;DHT22;6281;49.038;8.372;2022-12-10T13:59:51;2.70;99.90
12434;DHT22;6281;49.038;8.372;2022-12-10T14:02:36;2.90;99.90
12434;DHT22;6281;49.038;8.372;2022-12-10T14:05:24;2.90;99.90
12434;DHT22;6281;49.038;8.372;2022-12-10T14:07:56;3.10;99.90
12434;DHT22;6281;49.038;8.372;2022-12-10T14:10:27;3.20;99.90
12434;DHT22;6281;49.038;8.372;2022-12-10T14:12:56;2.90;99.90
12434;DHT22;6281;49.038;8.372;2022-12-10T14:15:24;2.90;99.90
12434;DHT22;6281;49.038;8.372;2022-12-10T14:17:54;3.00;99.90
12434;DHT22;6281;49.038;8.372;2022-12-10T14:20:24;3.10;99.90
12434;DHT22;6281;49.038;8.372;2022-12-10T14:22:53;3.20;99.90
12434;DHT22;6281;49.038;8.372;2022-12-10T14:25:42;3.10;99.90
12434;DHT22;6281;49.038;8.372;2022-12-10T14:28:14;3.30;99.90
12434;DHT22;6281;49.038;8.372;2022-12-10T14:30:44;3.40;99.90
12434;DHT22;6281;49.038;8.372;2022-12-10T14:33:15;3.50;99.90
12434;DHT22;6281;49.038;8.372;2022-12-10T14:35:46;3.40;99.90
12434;DHT22;6281;49.038;8.372;2022-12-10T14:38:17;3.60;99.90
12434;DHT22;6281;49.038;8.372;2022-12-10T14:40:47;3.40;99.90
12434;DHT22;6281;49.038;8.372;2022-12-10T14:43:18;3.00;99.90
12434;DHT22;6281;49.038;8.372;2022-12-10T14:45:48;3.10;99.90
12434;DHT22;6281;49.038;8.372;2022-12-10T14:48:16;3.40;99.90
12434;DHT22;6281;49.038;8.372;2022-12-10T14:50:45;3.50;99.90
12434;DHT22;6281;49.038;8.372;2022-12-10T14:53:14;3.50;99.90
12434;DHT22;6281;49.038;8.372;2022-12-10T14:55:42;3.50;99.90
12434;DHT22;6281;49.038;8.372;2022-12-10T14:58:14;3.50;99.90
12434;DHT22;6281;49.038;8.372;2022-12-10T15:00:43;3.30;99.90
12434;DHT22;6281;49.038;8.372;2022-12-10T15:03:15;3.40;99.90
12434;DHT22;6281;49.038;8.372;2022-12-10T15:05:54;3.40;99.90
12434;DHT22;6281;49.038;8.372;2022-12-10T15:08:22;3.70;99.90
12434;DHT22;6281;49.038;8.372;2022-12-10T15:10:53;3.80;99.90
12434;DHT22;6281;49.038;8.372;2022-12-10T15:13:23;3.80;99.90
12434;DHT22;6281;49.038;8.372;2022-12-10T15:15:53;3.50;99.90
12434;DHT22;6281;49.038;8.372;2022-12-10T15:18:27;3.40;99.90
12434;DHT22;6281;49.038;8.372;2022-12-10T15:21:04;3.20;99.90
12434;DHT22;6281;49.038;8.372;2022-12-10T15:23:33;3.20;99.90
12434;DHT22;6281;49.038;8.372;2022-12-10T15:26:03;3.20;99.90
12434;DHT22;6281;49.038;8.372;2022-12-10T15:28:32;3.30;99.90
12434;DHT22;6281;49.038;8.372;2022-12-10T15:31:13;3.30;99.90
12434;DHT22;6281;49.038;8.372;2022-12-10T15:33:44;3.50;99.90
12434;DHT22;6281;49.038;8.372;2022-12-10T15:36:18;3.40;99.90
12434;DHT22;6281;49.038;8.372;2022-12-10T15:38:46;3.40;99.90
12434;DHT22;6281;49.038;8.372;2022-12-10T15:41:31;3.60;99.90
12434;DHT22;6281;49.038;8.372;2022-12-10T15:44:02;3.50;99.90
12434;DHT22;6281;49.038;8.372;2022-12-10T15:46:31;3.50;99.90
12434;DHT22;6281;49.038;8.372;2022-12-10T15:48:58;3.10;99.90
12434;DHT22;6281;49.038;8.372;2022-12-10T15:51:27;3.20;99.90
12434;DHT22;6281;49.038;8.372;2022-12-10T15:53:56;3.30;99.90
12434;DHT22;6281;49.038;8.372;2022-12-10T15:56:23;3.30;99.90
12434;DHT22;6281;49.038;8.372;2022-12-10T15:58:50;3.00;99.90
12434;DHT22;6281;49.038;8.372;2022-12-10T16:01:17;2.70;99.90
12434;DHT22;6281;49.038;8.372;2022-12-10T16:03:49;2.80;99.90
12434;DHT22;6281;49.038;8.372;2022-12-10T16:06:16;2.60;99.90
12434;DHT22;6281;49.038;8.372;2022-12-10T16:08:44;3.00;99.90
12434;DHT22;6281;49.038;8.372;2022-12-10T16:11:15;2.80;99.90
12434;DHT22;6281;49.038;8.372;2022-12-10T16:13:48;3.00;99.90
12434;DHT22;6281;49.038;8.372;2022-12-10T16:16:16;2.70;99.90
12434;DHT22;6281;49.038;8.372;2022-12-10T16:18:43;2.90;99.90
12434;DHT22;6281;49.038;8.372;2022-12-10T16:21:11;2.90;99.90
12434;DHT22;6281;49.038;8.372;2022-12-10T16:23:38;3.20;99.90
12434;DHT22;6281;49.038;8.372;2022-12-10T16:26:13;3.00;99.90
12434;DHT22;6281;49.038;8.372;2022-12-10T16:28:41;2.90;99.90